Time;durP1;ratioP1;P1;durP2;ratioP2;P2;SDS_P1;SDS_P2;PMS_P1;PMS_P2;Temp;Humidity;BMP_temperature;BMP_pressure;BME280_temperature;BME280_humidity;BME280_pressure;Samples;Min_cycle;Max_cycle;Signal;HPM_P1;HPM_P2
2020/12/28 00:01:32;;;;;;;22.40;21.03;;;4.80;99.90;;;;;;5120819;27;20499;-75
2020/12/28 00:03:59;;;;;;;23.77;21.67;;;4.80;99.90;;;;;;5120813;28;20489;-74
2020/12/28 00:06:25;;;;;;;22.17;20.80;;;4.80;99.90;;;;;;5119105;28;20448;-75
2020/12/28 00:08:51;;;;;;;21.70;20.50;;;4.80;99.90;;;;;;5121203;28;20971;-75
2020/12/28 00:11:19;;;;;;;22.67;21.27;;;4.80;99.90;;;;;;5117119;28;20453;-75
2020/12/28 00:13:46;;;;;;;22.20;20.90;;;4.70;99.90;;;;;;5120693;28;20955;-74
2020/12/28 00:16:14;;;;;;;22.90;21.50;;;4.60;99.90;;;;;;5121945;27;20480;-75
2020/12/28 00:18:42;;;;;;;23.00;21.60;;;4.60;99.90;;;;;;5124754;28;20457;-75
2020/12/28 00:21:09;;;;;;;21.93;20.57;;;4.60;99.90;;;;;;5121367;28;20445;-75
2020/12/28 00:23:36;;;;;;;22.70;20.53;;;4.70;99.90;;;;;;5117436;28;20480;-75
2020/12/28 00:26:03;;;;;;;20.87;19.67;;;4.70;99.90;;;;;;5118072;28;20934;-74
2020/12/28 00:28:31;;;;;;;21.20;20.00;;;4.70;99.90;;;;;;5119423;28;20475;-74
2020/12/28 00:30:57;;;;;;;21.23;19.70;;;4.60;99.90;;;;;;5123115;27;20458;-75
2020/12/28 00:33:23;;;;;;;21.10;19.90;;;4.60;99.90;;;;;;5123729;28;20445;-76
2020/12/28 00:35:51;;;;;;;20.87;19.77;;;4.50;99.90;;;;;;5126970;28;20487;-76
2020/12/28 00:38:17;;;;;;;20.40;19.30;;;4.50;99.90;;;;;;5121922;27;20536;-77
2020/12/28 00:40:43;;;;;;;20.90;19.70;;;4.50;99.90;;;;;;5120703;27;21002;-77
2020/12/28 00:43:10;;;;;;;20.83;19.73;;;4.50;99.90;;;;;;5126785;27;20456;-76
2020/12/28 00:45:38;;;;;;;19.73;18.63;;;4.50;99.90;;;;;;5124266;27;20457;-76
2020/12/28 00:48:04;;;;;;;21.10;20.00;;;4.50;99.90;;;;;;5126691;27;20501;-78
2020/12/28 00:50:31;;;;;;;20.93;19.83;;;4.50;99.90;;;;;;5123373;27;20456;-76
2020/12/28 00:52:57;;;;;;;20.00;19.00;;;4.50;99.90;;;;;;5126352;27;20486;-76
2020/12/28 00:55:23;;;;;;;20.20;19.10;;;4.60;99.90;;;;;;5123833;27;21365;-76
2020/12/28 00:57:51;;;;;;;19.97;18.97;;;4.60;99.90;;;;;;5121132;27;20514;-77
2020/12/28 01:00:17;;;;;;;21.47;20.27;;;4.50;99.90;;;;;;5124249;27;20456;-76
2020/12/28 01:02:44;;;;;;;20.83;19.67;;;4.60;99.90;;;;;;5120921;27;20457;-75
2020/12/28 01:05:11;;;;;;;20.53;19.33;;;4.50;99.90;;;;;;5125997;27;20460;-75
2020/12/28 01:07:37;;;;;;;21.00;19.80;;;4.40;99.90;;;;;;5118603;27;20512;-75
2020/12/28 01:10:04;;;;;;;20.57;19.37;;;4.40;99.90;;;;;;5124712;27;20794;-75
2020/12/28 01:12:32;;;;;;;19.97;18.87;;;4.40;99.90;;;;;;5129458;27;20857;-76
2020/12/28 01:14:59;;;;;;;20.77;19.67;;;4.40;99.90;;;;;;5126159;27;20533;-76
2020/12/28 01:17:26;;;;;;;20.40;19.20;;;4.30;99.90;;;;;;5126570;27;21087;-76
2020/12/28 01:19:55;;;;;;;19.07;18.07;;;4.30;99.90;;;;;;5126547;27;20527;-76
2020/12/28 01:22:21;;;;;;;19.53;18.53;;;4.40;99.90;;;;;;5128272;27;20981;-76
2020/12/28 01:24:48;;;;;;;20.13;19.03;;;4.30;99.90;;;;;;5126781;27;20452;-77
2020/12/28 01:27:14;;;;;;;19.87;18.77;;;4.40;99.90;;;;;;5122766;27;20456;-76
2020/12/28 01:29:41;;;;;;;20.57;19.47;;;4.50;99.90;;;;;;5123566;27;20934;-76
2020/12/28 01:32:09;;;;;;;20.83;19.53;;;4.50;99.90;;;;;;5133029;27;20457;-75
2020/12/28 01:34:36;;;;;;;20.50;19.40;;;4.50;99.90;;;;;;5122862;27;20456;-75
2020/12/28 01:37:03;;;;;;;20.23;19.13;;;4.50;99.90;;;;;;5122951;27;20503;-75
2020/12/28 01:39:30;;;;;;;19.70;18.70;;;4.50;99.90;;;;;;5119015;27;20464;-75
2020/12/28 01:41:57;;;;;;;19.27;18.27;;;4.50;99.90;;;;;;5122586;27;20460;-76
2020/12/28 01:44:24;;;;;;;19.60;18.60;;;4.50;99.90;;;;;;5122240;27;20465;-76
2020/12/28 01:46:50;;;;;;;20.00;19.00;;;4.50;99.90;;;;;;5122082;27;20530;-77
2020/12/28 01:49:16;;;;;;;19.07;18.17;;;4.50;99.90;;;;;;5121310;27;20469;-76
2020/12/28 01:51:44;;;;;;;19.17;18.27;;;4.50;99.90;;;;;;5120681;27;20460;-76
2020/12/28 01:54:13;;;;;;;19.40;18.47;;;4.50;99.90;;;;;;5116387;27;20457;-76
2020/12/28 01:56:41;;;;;;;19.97;18.67;;;4.50;99.90;;;;;;5123301;27;20483;-75
2020/12/28 01:59:08;;;;;;;19.30;18.40;;;4.50;99.90;;;;;;5120572;27;20471;-74
2020/12/28 02:01:40;;;;;;;18.77;17.70;;;4.50;99.90;;;;;;5126522;27;20864;-75
2020/12/28 02:04:07;;;;;;;18.20;17.30;;;4.50;99.90;;;;;;5121790;27;20943;-75
2020/12/28 02:06:35;;;;;;;18.03;17.13;;;4.30;99.90;;;;;;5117326;27;20461;-77
2020/12/28 02:09:02;;;;;;;17.83;17.03;;;4.40;99.90;;;;;;5123245;27;20475;-76
2020/12/28 02:11:30;;;;;;;19.00;18.10;;;4.30;99.90;;;;;;5121039;27;20544;-76
2020/12/28 02:13:58;;;;;;;17.93;17.13;;;4.30;99.90;;;;;;5122004;27;20536;-77
2020/12/28 02:16:24;;;;;;;17.77;16.97;;;4.30;99.90;;;;;;5124006;27;20493;-79
2020/12/28 02:18:50;;;;;;;18.43;17.53;;;4.20;99.90;;;;;;5128461;27;20537;-76
2020/12/28 02:21:17;;;;;;;18.90;18.00;;;4.30;99.90;;;;;;5125906;27;20457;-76
2020/12/28 02:23:45;;;;;;;19.20;18.30;;;4.30;99.90;;;;;;5119818;27;20860;-77
2020/12/28 02:26:12;;;;;;;18.77;17.87;;;4.30;99.90;;;;;;5119717;27;20542;-76
2020/12/28 02:28:39;;;;;;;19.17;18.27;;;4.30;99.90;;;;;;5125268;27;20460;-76
2020/12/28 02:31:05;;;;;;;19.67;18.63;;;4.30;99.90;;;;;;5123483;27;20456;-76
2020/12/28 02:33:34;;;;;;;19.50;18.60;;;4.30;99.90;;;;;;5118878;27;20460;-76
2020/12/28 02:36:00;;;;;;;18.60;17.70;;;4.40;99.90;;;;;;5124586;27;20519;-76
2020/12/28 02:38:26;;;;;;;18.80;17.90;;;4.30;99.90;;;;;;5121880;27;20476;-78
2020/12/28 02:40:54;;;;;;;18.50;17.27;;;4.30;99.90;;;;;;5118482;27;20484;-77
2020/12/28 02:43:21;;;;;;;18.23;17.40;;;4.30;99.90;;;;;;5124135;27;20448;-76
2020/12/28 02:45:47;;;;;;;17.53;16.73;;;4.30;99.90;;;;;;5125076;27;20448;-77
2020/12/28 02:48:14;;;;;;;16.80;16.00;;;4.30;99.90;;;;;;5123954;27;20456;-78
2020/12/28 02:50:40;;;;;;;18.50;17.60;;;4.30;99.90;;;;;;5115941;27;20843;-77
2020/12/28 02:53:07;;;;;;;17.17;16.37;;;4.30;99.90;;;;;;5119602;27;20845;-78
2020/12/28 02:55:33;;;;;;;17.93;17.03;;;4.30;99.90;;;;;;5122641;27;20488;-78
2020/12/28 02:58:01;;;;;;;18.03;17.23;;;4.30;99.90;;;;;;5122777;27;20489;-76
2020/12/28 03:00:27;;;;;;;17.13;16.33;;;4.30;99.90;;;;;;5126101;27;20509;-75
2020/12/28 03:02:55;;;;;;;17.13;16.33;;;4.30;99.90;;;;;;5125234;27;20536;-75
2020/12/28 03:05:22;;;;;;;17.43;16.63;;;4.30;99.90;;;;;;5122581;27;20456;-78
2020/12/28 03:07:48;;;;;;;16.80;16.00;;;4.30;99.90;;;;;;5119036;27;20963;-76
2020/12/28 03:10:15;;;;;;;17.47;16.57;;;4.30;99.90;;;;;;5123350;27;20657;-78
2020/12/28 03:12:41;;;;;;;17.50;16.70;;;4.30;99.90;;;;;;5117831;27;20460;-77
2020/12/28 03:15:09;;;;;;;17.13;16.33;;;4.30;99.90;;;;;;5125191;27;20461;-78
2020/12/28 03:17:35;;;;;;;17.83;16.93;;;4.30;99.90;;;;;;5119527;27;21022;-76
2020/12/28 03:20:02;;;;;;;17.90;17.10;;;4.20;99.90;;;;;;5116989;27;20461;-79
2020/12/28 03:22:29;;;;;;;17.90;17.00;;;4.20;99.90;;;;;;5120180;27;20458;-78
2020/12/28 03:24:56;;;;;;;18.70;17.80;;;4.20;99.90;;;;;;5124172;27;20488;-80
2020/12/28 03:27:22;;;;;;;17.50;16.70;;;4.20;99.90;;;;;;5122515;27;21020;-79
2020/12/28 03:29:48;;;;;;;18.57;17.67;;;4.20;99.90;;;;;;5123947;27;20456;-80
2020/12/28 03:32:16;;;;;;;17.73;16.93;;;4.20;99.90;;;;;;5121026;27;20467;-79
2020/12/28 03:34:44;;;;;;;17.80;16.90;;;4.20;99.90;;;;;;5121497;28;20456;-77
2020/12/28 03:37:10;;;;;;;18.17;17.27;;;4.20;99.90;;;;;;5117031;28;20507;-79
2020/12/28 03:39:38;;;;;;;18.90;18.00;;;4.20;99.90;;;;;;5122025;28;20685;-80
2020/12/28 03:42:05;;;;;;;19.03;18.13;;;4.20;99.90;;;;;;5123717;28;20457;-76
2020/12/28 03:44:31;;;;;;;18.93;18.03;;;4.30;99.90;;;;;;5126112;28;20455;-77
2020/12/28 03:46:58;;;;;;;18.13;17.23;;;4.30;99.90;;;;;;5119226;27;20464;-79
2020/12/28 03:49:26;;;;;;;18.60;17.70;;;4.30;99.90;;;;;;5119733;28;20831;-78
2020/12/28 03:51:53;;;;;;;18.40;17.50;;;4.30;99.90;;;;;;5124203;28;20914;-78
2020/12/28 03:54:19;;;;;;;18.33;17.43;;;4.30;99.90;;;;;;5125657;28;20456;-77
2020/12/28 03:56:46;;;;;;;18.43;17.10;;;4.40;99.90;;;;;;5121003;28;20495;-77
2020/12/28 03:59:14;;;;;;;18.20;17.30;;;4.50;99.90;;;;;;5120833;28;20960;-77
2020/12/28 04:01:40;;;;;;;17.03;16.23;;;4.40;99.90;;;;;;5119894;27;20543;-79
2020/12/28 04:04:07;;;;;;;18.17;17.27;;;4.40;99.90;;;;;;5123112;28;20468;-78
2020/12/28 04:06:34;;;;;;;19.40;18.40;;;4.50;99.90;;;;;;5125076;28;20460;-76
2020/12/28 04:09:00;;;;;;;20.03;18.90;;;4.50;99.90;;;;;;5124510;28;20451;-77
2020/12/28 04:11:26;;;;;;;19.27;18.27;;;4.40;99.90;;;;;;5122045;28;20456;-75
2020/12/28 04:13:52;;;;;;;19.97;18.77;;;4.40;99.90;;;;;;5118902;27;20578;-75
2020/12/28 04:16:19;;;;;;;20.30;19.20;;;4.40;99.90;;;;;;5129986;27;20472;-75
2020/12/28 04:18:45;;;;;;;19.63;18.63;;;4.40;99.90;;;;;;5121566;27;20465;-78
2020/12/28 04:21:11;;;;;;;20.57;19.47;;;4.40;99.90;;;;;;5127974;27;20518;-76
2020/12/28 04:23:38;;;;;;;20.33;19.23;;;4.40;99.90;;;;;;5125700;27;20497;-77
2020/12/28 04:26:05;;;;;;;20.17;19.17;;;4.40;99.90;;;;;;5124816;27;20463;-76
2020/12/28 04:28:32;;;;;;;20.03;18.77;;;4.40;99.90;;;;;;5125848;27;20461;-75
2020/12/28 04:30:58;;;;;;;20.33;19.23;;;4.20;99.90;;;;;;5126996;27;20460;-78
2020/12/28 04:33:25;;;;;;;19.80;18.80;;;4.10;99.90;;;;;;5129232;27;20463;-77
2020/12/28 04:35:51;;;;;;;20.17;19.07;;;4.10;99.90;;;;;;5129169;27;20452;-76
2020/12/28 04:38:17;;;;;;;19.60;18.60;;;4.10;99.90;;;;;;5124551;27;20484;-77
2020/12/28 04:40:46;;;;;;;19.80;18.80;;;4.10;99.90;;;;;;5121615;27;20480;-76
2020/12/28 04:43:14;;;;;;;20.10;19.10;;;4.00;99.90;;;;;;5128745;27;20462;-75
2020/12/28 04:45:41;;;;;;;20.47;19.37;;;4.00;99.90;;;;;;5128519;27;20956;-78
2020/12/28 04:48:09;;;;;;;20.40;19.20;;;3.90;99.90;;;;;;5126008;27;20517;-77
2020/12/28 04:50:38;;;;;;;20.73;19.63;;;3.90;99.90;;;;;;5120853;27;20821;-77
2020/12/28 04:53:05;;;;;;;21.90;20.60;;;3.80;99.90;;;;;;5126280;27;20821;-75
2020/12/28 04:55:33;;;;;;;21.13;20.03;;;3.80;99.90;;;;;;5127351;27;20476;-78
2020/12/28 04:58:01;;;;;;;21.63;20.40;;;3.80;99.90;;;;;;5128646;27;20488;-75
2020/12/28 05:00:28;;;;;;;20.93;19.83;;;3.70;99.90;;;;;;5130720;27;20455;-78
2020/12/28 05:02:55;;;;;;;21.53;20.33;;;3.60;99.90;;;;;;5118413;27;20457;-75
2020/12/28 05:05:21;;;;;;;21.20;20.10;;;3.50;99.90;;;;;;5116993;27;20486;-75
2020/12/28 05:07:51;;;;;;;21.40;20.23;;;3.40;99.90;;;;;;5123794;27;20472;-78
2020/12/28 05:10:22;;;;;;;21.37;20.17;;;3.30;99.90;;;;;;5122752;27;20461;-78
2020/12/28 05:12:48;;;;;;;22.50;21.30;;;3.20;99.90;;;;;;5127719;27;20485;-78
2020/12/28 05:15:15;;;;;;;21.13;20.03;;;3.10;99.90;;;;;;5128078;27;20813;-78
2020/12/28 05:17:42;;;;;;;21.40;20.20;;;3.00;99.90;;;;;;5117479;27;20496;-74
2020/12/28 05:20:08;;;;;;;21.27;20.07;;;3.00;99.90;;;;;;5119761;27;20467;-77
2020/12/28 05:22:36;;;;;;;22.30;21.10;;;2.90;99.90;;;;;;5123523;27;20517;-77
2020/12/28 05:25:02;;;;;;;22.27;20.83;;;2.80;99.90;;;;;;5122558;27;20460;-75
2020/12/28 05:27:28;;;;;;;22.37;21.07;;;2.90;99.90;;;;;;5126010;27;20452;-76
2020/12/28 05:29:57;;;;;;;22.70;21.40;;;2.80;99.90;;;;;;5122157;27;20463;-76
2020/12/28 05:32:25;;;;;;;22.07;20.87;;;2.80;99.90;;;;;;5125799;27;20461;-75
2020/12/28 05:34:53;;;;;;;21.93;20.70;;;2.70;99.90;;;;;;5122687;27;20468;-76
2020/12/28 05:37:23;;;;;;;21.87;20.57;;;2.60;99.90;;;;;;5116271;27;20491;-75
2020/12/28 05:39:52;;;;;;;22.50;21.20;;;2.60;99.90;;;;;;5118742;27;20484;-78
2020/12/28 05:42:20;;;;;;;23.33;21.77;;;2.50;99.90;;;;;;5126718;27;20457;-77
2020/12/28 05:44:47;;;;;;;22.80;21.40;;;2.50;99.90;;;;;;5123136;27;20930;-78
2020/12/28 05:47:15;;;;;;;23.70;22.30;;;2.50;99.90;;;;;;5122115;27;20478;-76
2020/12/28 05:49:44;;;;;;;23.30;21.90;;;2.40;99.90;;;;;;5125863;27;20488;-75
2020/12/28 05:52:13;;;;;;;22.37;21.07;;;2.40;99.90;;;;;;5118890;27;20469;-75
2020/12/28 05:54:39;;;;;;;26.13;24.40;;;2.30;99.90;;;;;;5123106;27;20464;-74
2020/12/28 05:57:07;;;;;;;27.00;25.10;;;2.10;99.90;;;;;;5126571;27;20487;-78
2020/12/28 05:59:34;;;;;;;22.30;20.90;;;2.20;99.90;;;;;;5123873;27;20490;-76
2020/12/28 06:02:01;;;;;;;27.67;25.57;;;2.20;99.90;;;;;;5119836;27;20465;-74
2020/12/28 06:04:28;;;;;;;26.87;24.80;;;2.20;99.90;;;;;;5124987;27;20461;-77
2020/12/28 06:06:58;;;;;;;23.93;22.43;;;2.10;99.90;;;;;;5123613;27;20464;-74
2020/12/28 06:09:25;;;;;;;24.03;22.50;;;2.00;99.90;;;;;;5124058;27;20457;-76
2020/12/28 06:12:02;;;;;;;25.50;23.67;;;1.90;99.90;;;;;;5124632;27;21004;-74
2020/12/28 06:14:34;;;;;;;24.77;23.17;;;1.70;99.90;;;;;;5121539;27;20456;-77
2020/12/28 06:17:04;;;;;;;24.87;23.27;;;1.60;99.90;;;;;;5121884;27;20528;-74
2020/12/28 06:19:31;;;;;;;23.90;22.50;;;1.50;99.90;;;;;;5125661;27;20522;-74
2020/12/28 06:21:58;;;;;;;24.00;22.50;;;1.50;99.90;;;;;;5118893;27;20530;-75
2020/12/28 06:24:26;;;;;;;24.80;23.10;;;1.50;99.90;;;;;;5130340;27;20456;-76
2020/12/28 06:27:00;;;;;;;28.70;26.50;;;1.40;99.90;;;;;;5125446;27;20821;-77
2020/12/28 06:29:27;;;;;;;24.70;23.10;;;1.40;99.90;;;;;;5123001;27;20467;-77
2020/12/28 06:31:54;;;;;;;25.13;23.53;;;1.30;99.90;;;;;;5118616;27;21000;-77
2020/12/28 06:34:21;;;;;;;26.97;25.07;;;1.20;99.90;;;;;;5115673;27;20525;-75
2020/12/28 06:36:58;;;;;;;26.40;24.40;;;1.20;99.90;;;;;;5121082;27;20513;-77
2020/12/28 06:39:26;;;;;;;23.57;22.00;;;1.10;99.90;;;;;;5124557;27;20491;-75
2020/12/28 06:41:54;;;;;;;24.53;22.83;;;1.00;99.90;;;;;;5121994;27;20460;-74
2020/12/28 06:44:27;;;;;;;24.50;22.67;;;1.00;99.90;;;;;;5119254;27;20459;-78
2020/12/28 06:46:55;;;;;;;25.27;23.53;;;1.00;99.90;;;;;;5123691;27;20544;-75
2020/12/28 06:49:21;;;;;;;25.93;24.03;;;1.00;99.90;;;;;;5123064;27;20460;-76
2020/12/28 06:51:48;;;;;;;25.50;23.80;;;1.10;99.90;;;;;;5117784;27;20464;-77
2020/12/28 06:54:21;;;;;;;25.03;22.97;;;1.10;99.90;;;;;;5114663;27;20457;-77
2020/12/28 06:56:49;;;;;;;25.63;23.50;;;1.10;99.90;;;;;;5118977;27;20494;-74
2020/12/28 06:59:15;;;;;;;25.50;23.60;;;1.10;99.90;;;;;;5116851;27;20453;-75
2020/12/28 07:01:47;;;;;;;27.43;22.30;;;1.10;99.90;;;;;;5119671;27;20464;-75
2020/12/28 07:04:14;;;;;;;24.43;22.73;;;1.00;99.90;;;;;;5121619;27;20453;-76
2020/12/28 07:06:41;;;;;;;24.33;22.57;;;0.90;99.90;;;;;;5120696;27;20467;-77
2020/12/28 07:09:09;;;;;;;29.80;27.00;;;0.90;99.90;;;;;;5113947;27;20820;-76
2020/12/28 07:11:36;;;;;;;24.50;22.90;;;0.80;99.90;;;;;;5115325;27;21027;-77
2020/12/28 07:14:05;;;;;;;24.27;22.57;;;0.90;99.90;;;;;;5125040;27;20461;-74
2020/12/28 07:16:32;;;;;;;24.80;23.10;;;1.10;99.90;;;;;;5123235;27;20509;-74
2020/12/28 07:19:03;;;;;;;24.10;22.50;;;1.20;99.90;;;;;;5121697;27;20463;-77
2020/12/28 07:21:30;;;;;;;23.73;22.27;;;1.10;99.90;;;;;;5114714;27;20464;-76
2020/12/28 07:23:57;;;;;;;24.87;23.07;;;1.10;99.90;;;;;;5124901;27;20467;-76
2020/12/28 07:26:23;;;;;;;23.60;21.90;;;1.10;99.90;;;;;;5117592;27;20464;-75
2020/12/28 07:28:50;;;;;;;23.97;22.17;;;1.00;99.90;;;;;;5113587;27;20681;-74
2020/12/28 07:31:21;;;;;;;23.50;22.00;;;1.00;99.90;;;;;;5126155;27;20453;-74
2020/12/28 07:33:51;;;;;;;24.97;23.27;;;1.00;99.90;;;;;;5118573;28;20818;-74
2020/12/28 07:36:20;;;;;;;24.47;22.57;;;0.80;99.90;;;;;;5120762;28;20948;-75
2020/12/28 07:38:47;;;;;;;24.30;22.60;;;0.80;99.90;;;;;;5122873;28;20584;-75
2020/12/28 07:41:14;;;;;;;24.37;22.77;;;0.80;99.90;;;;;;5115776;28;20510;-77
2020/12/28 07:43:50;;;;;;;24.90;23.00;;;0.70;99.90;;;;;;5126595;28;20466;-75
2020/12/28 07:46:34;;;;;;;24.77;22.87;;;0.70;99.90;;;;;;5119544;27;20467;-75
2020/12/28 07:49:05;;;;;;;25.43;23.23;;;0.70;99.90;;;;;;5120685;27;20489;-74
2020/12/28 07:51:33;;;;;;;25.03;23.03;;;0.80;99.90;;;;;;5121047;27;20721;-73
2020/12/28 07:54:09;;;;;;;25.20;22.57;;;0.90;99.90;;;;;;5119016;27;20457;-76
2020/12/28 07:56:43;;;;;;;25.20;22.57;;;0.90;99.90;;;;;;5124606;27;20468;-74
2020/12/28 07:59:26;;;;;;;24.63;22.67;;;0.80;99.90;;;;;;5122821;27;20503;-74
2020/12/28 08:01:55;;;;;;;24.20;22.60;;;0.70;99.90;;;;;;5128280;27;20460;-74
2020/12/28 08:04:23;;;;;;;24.17;22.00;;;0.70;99.90;;;;;;5123827;27;20486;-74
2020/12/28 08:06:50;;;;;;;25.20;22.70;;;0.70;99.90;;;;;;5121502;27;20463;-73
2020/12/28 08:09:21;;;;;;;23.30;21.70;;;0.80;99.90;;;;;;5118841;27;20562;-75
2020/12/28 08:11:56;;;;;;;24.00;21.77;;;0.70;99.90;;;;;;5123233;27;20479;-75
2020/12/28 08:14:22;;;;;;;24.50;22.30;;;0.70;99.90;;;;;;5125415;27;20470;-74
2020/12/28 08:16:48;;;;;;;24.10;22.30;;;0.70;99.90;;;;;;5120286;27;20591;-76
2020/12/28 08:19:24;;;;;;;24.27;22.27;;;0.70;99.90;;;;;;5119287;27;20460;-75
2020/12/28 08:21:51;;;;;;;23.13;21.73;;;0.70;99.90;;;;;;5121552;27;20464;-75
2020/12/28 08:24:22;;;;;;;23.03;21.43;;;0.80;99.90;;;;;;5118773;27;20460;-77
2020/12/28 08:26:50;;;;;;;23.53;21.67;;;0.90;99.90;;;;;;5119714;27;21130;-75
2020/12/28 08:29:17;;;;;;;22.97;21.17;;;1.00;99.90;;;;;;5121762;27;20451;-75
2020/12/28 08:31:44;;;;;;;22.30;20.33;;;1.00;99.90;;;;;;5126104;27;20465;-76
2020/12/28 08:34:12;;;;;;;21.90;20.50;;;1.00;99.90;;;;;;5125618;27;20557;-75
2020/12/28 08:36:41;;;;;;;21.80;20.30;;;1.10;99.90;;;;;;5123479;27;20483;-75
2020/12/28 08:39:12;;;;;;;23.77;21.60;;;1.30;99.90;;;;;;5120934;27;20459;-74
2020/12/28 08:41:40;;;;;;;22.53;20.80;;;1.40;99.90;;;;;;5113307;27;21024;-74
2020/12/28 08:44:06;;;;;;;22.30;20.63;;;1.50;99.90;;;;;;5121996;27;20492;-75
2020/12/28 08:46:33;;;;;;;21.73;20.33;;;1.70;99.90;;;;;;5127063;27;20460;-73
2020/12/28 08:49:01;;;;;;;22.60;20.60;;;1.70;99.90;;;;;;5121739;27;20465;-76
2020/12/28 08:51:30;;;;;;;23.03;20.63;;;1.80;99.90;;;;;;5122144;27;20460;-75
2020/12/28 08:53:58;;;;;;;22.07;20.57;;;1.90;99.90;;;;;;5126627;27;20521;-73
2020/12/28 08:56:25;;;;;;;22.10;20.60;;;2.00;99.90;;;;;;5127586;27;20513;-74
2020/12/28 08:58:51;;;;;;;22.30;20.30;;;2.10;99.90;;;;;;5130521;27;20469;-76
2020/12/28 09:01:18;;;;;;;22.47;20.67;;;2.10;99.90;;;;;;5119001;27;20460;-75
2020/12/28 09:03:45;;;;;;;22.27;20.87;;;2.20;99.90;;;;;;5126510;27;20460;-73
2020/12/28 09:06:13;;;;;;;22.40;20.87;;;2.30;99.90;;;;;;5122615;27;20488;-73
2020/12/28 09:08:39;;;;;;;23.10;21.60;;;2.40;99.90;;;;;;5127056;27;20455;-74
2020/12/28 09:11:08;;;;;;;22.30;20.87;;;2.60;99.90;;;;;;5127855;27;20468;-74
2020/12/28 09:13:34;;;;;;;22.80;21.30;;;2.60;99.90;;;;;;5123837;27;20452;-75
2020/12/28 09:16:01;;;;;;;23.50;21.90;;;2.80;99.90;;;;;;5129745;27;20459;-74
2020/12/28 09:18:27;;;;;;;24.13;22.30;;;2.80;99.90;;;;;;5126567;27;20492;-75
2020/12/28 09:20:54;;;;;;;22.50;20.80;;;2.90;99.90;;;;;;5117809;27;20461;-75
2020/12/28 09:23:21;;;;;;;24.10;21.93;;;3.00;99.90;;;;;;5124322;27;21092;-75
2020/12/28 09:25:47;;;;;;;23.10;21.50;;;3.00;99.90;;;;;;5118370;27;20456;-76
2020/12/28 09:28:14;;;;;;;22.90;21.40;;;3.00;99.90;;;;;;5123857;27;20456;-74
2020/12/28 09:30:44;;;;;;;23.23;21.53;;;3.10;99.90;;;;;;5127080;27;20984;-76
2020/12/28 09:33:11;;;;;;;23.20;21.70;;;3.10;99.90;;;;;;5124927;27;20467;-74
2020/12/28 09:35:38;;;;;;;23.83;22.13;;;3.10;99.90;;;;;;5125813;27;20460;-76
2020/12/28 09:38:04;;;;;;;24.37;22.80;;;3.20;99.90;;;;;;5127886;27;20525;-74
2020/12/28 09:40:30;;;;;;;22.87;21.27;;;3.30;99.90;;;;;;5122396;27;20845;-75
2020/12/28 09:42:58;;;;;;;24.00;22.40;;;3.30;99.90;;;;;;5122175;27;20456;-74
2020/12/28 09:45:39;;;;;;;23.10;21.50;;;3.40;99.90;;;;;;5120616;27;20464;-75
2020/12/28 09:48:07;;;;;;;24.03;22.33;;;3.50;99.90;;;;;;5119728;27;20461;-75
2020/12/28 09:50:33;;;;;;;27.20;24.87;;;3.50;99.90;;;;;;5127345;27;20461;-74
2020/12/28 09:53:00;;;;;;;25.30;23.70;;;3.50;99.90;;;;;;5118580;27;20837;-76
2020/12/28 09:55:26;;;;;;;25.40;23.30;;;3.50;99.90;;;;;;5117148;27;20464;-75
2020/12/28 09:57:53;;;;;;;25.97;24.03;;;3.50;99.90;;;;;;5119376;27;20496;-73
2020/12/28 10:00:19;;;;;;;25.03;22.80;;;3.50;99.90;;;;;;5113341;27;20453;-74
2020/12/28 10:02:46;;;;;;;25.03;23.27;;;3.60;99.90;;;;;;5118789;27;20472;-74
2020/12/28 10:05:13;;;;;;;26.27;24.57;;;3.60;99.90;;;;;;5118048;27;20464;-76
2020/12/28 10:07:40;;;;;;;25.80;24.00;;;3.60;99.90;;;;;;5121545;27;20501;-74
2020/12/28 10:10:08;;;;;;;24.50;22.80;;;3.50;99.90;;;;;;5122331;27;20457;-75
2020/12/28 10:12:36;;;;;;;25.70;23.53;;;3.60;99.90;;;;;;5122303;27;20456;-75
2020/12/28 10:15:03;;;;;;;24.20;22.30;;;3.60;99.90;;;;;;5119320;27;20502;-74
2020/12/28 10:17:30;;;;;;;24.03;22.30;;;3.60;99.90;;;;;;5127946;27;20496;-76
2020/12/28 10:19:57;;;;;;;24.73;22.73;;;3.70;99.90;;;;;;5123882;27;20467;-74
2020/12/28 10:22:23;;;;;;;24.50;22.60;;;3.80;99.90;;;;;;5121984;27;20464;-74
2020/12/28 10:24:52;;;;;;;26.33;24.00;;;3.80;99.90;;;;;;5119400;27;20585;-76
2020/12/28 10:27:18;;;;;;;25.13;22.57;;;3.90;99.90;;;;;;5116029;27;20506;-75
2020/12/28 10:29:45;;;;;;;25.47;23.67;;;3.80;99.90;;;;;;5113215;27;20456;-74
2020/12/28 10:32:13;;;;;;;25.87;23.77;;;3.70;99.90;;;;;;5123705;27;20486;-75
2020/12/28 10:34:40;;;;;;;23.70;22.00;;;3.70;99.90;;;;;;5116939;27;20461;-76
2020/12/28 10:37:08;;;;;;;24.10;22.40;;;3.80;99.90;;;;;;5118808;27;20492;-75
2020/12/28 10:39:34;;;;;;;24.97;23.20;;;3.80;99.90;;;;;;5119521;27;20461;-76
2020/12/28 10:42:04;;;;;;;24.67;22.67;;;3.90;99.90;;;;;;5116376;27;20589;-76
2020/12/28 10:44:31;;;;;;;24.00;22.40;;;4.00;99.90;;;;;;5118649;27;20459;-74
2020/12/28 10:46:57;;;;;;;24.17;22.67;;;4.00;99.90;;;;;;5119473;27;20469;-75
2020/12/28 10:49:24;;;;;;;24.03;22.43;;;4.10;99.90;;;;;;5117925;27;20461;-75
2020/12/28 10:51:50;;;;;;;24.10;22.30;;;4.20;99.90;;;;;;5116858;27;20456;-76
2020/12/28 10:54:17;;;;;;;23.70;21.80;;;4.40;99.90;;;;;;5125330;27;20464;-75
2020/12/28 10:56:43;;;;;;;23.30;21.40;;;4.40;99.90;;;;;;5120990;27;20456;-74
2020/12/28 10:59:09;;;;;;;24.03;22.40;;;4.50;99.90;;;;;;5118199;27;20461;-74
2020/12/28 11:01:36;;;;;;;22.73;21.23;;;4.50;99.90;;;;;;5125881;27;20457;-75
2020/12/28 11:04:02;;;;;;;23.90;22.10;;;4.70;99.90;;;;;;5124994;27;20461;-77
2020/12/28 11:06:28;;;;;;;23.77;22.07;;;4.80;99.90;;;;;;5113883;27;20544;-74
2020/12/28 11:08:55;;;;;;;23.70;22.10;;;4.80;99.90;;;;;;5117627;27;20479;-76
2020/12/28 11:11:22;;;;;;;23.70;22.10;;;4.80;99.90;;;;;;5115282;27;20472;-75
2020/12/28 11:13:51;;;;;;;23.47;21.80;;;4.90;99.90;;;;;;5120175;27;20933;-76
2020/12/28 11:16:24;;;;;;;23.70;21.67;;;4.90;99.90;;;;;;5121187;27;20765;-74
2020/12/28 11:18:51;;;;;;;24.30;22.07;;;4.90;99.90;;;;;;5116554;27;20493;-74
2020/12/28 11:21:18;;;;;;;22.83;21.23;;;4.90;99.90;;;;;;5113227;27;20464;-77
2020/12/28 11:24:00;;;;;;;22.67;20.97;;;4.90;99.90;;;;;;5107560;27;20469;-74
2020/12/28 11:26:28;;;;;;;22.20;20.67;;;5.00;99.90;;;;;;5115204;27;20562;-76
2020/12/28 11:28:55;;;;;;;23.43;21.20;;;4.90;99.90;;;;;;5107886;28;20551;-76
2020/12/28 11:31:22;;;;;;;23.13;20.83;;;4.90;99.90;;;;;;5121749;27;20452;-74
2020/12/28 11:33:48;;;;;;;22.30;20.23;;;5.00;99.90;;;;;;5120530;27;20467;-75
2020/12/28 11:36:15;;;;;;;22.20;20.37;;;5.10;99.90;;;;;;5112950;28;20974;-78
2020/12/28 11:38:43;;;;;;;22.00;20.40;;;5.10;99.90;;;;;;5116193;28;20966;-75
2020/12/28 11:41:09;;;;;;;22.27;20.23;;;5.20;99.90;;;;;;5110485;28;20584;-78
2020/12/28 11:43:37;;;;;;;20.43;19.00;;;5.30;99.90;;;;;;5117412;28;20465;-75
2020/12/28 11:46:05;;;;;;;21.30;19.73;;;5.50;99.90;;;;;;5115057;27;20475;-76
2020/12/28 11:48:31;;;;;;;20.90;19.30;;;6.00;99.90;;;;;;5109927;28;20842;-76
2020/12/28 11:50:57;;;;;;;19.80;18.37;;;6.60;99.90;;;;;;5117269;28;20478;-78
2020/12/28 11:53:24;;;;;;;20.40;19.00;;;6.90;99.90;;;;;;5113351;28;20462;-78
2020/12/28 11:56:03;;;;;;;20.40;18.67;;;6.70;99.90;;;;;;5117101;28;20463;-78
2020/12/28 11:58:31;;;;;;;20.17;18.50;;;6.50;99.90;;;;;;5120264;28;20488;-77
2020/12/28 12:00:59;;;;;;;22.80;20.57;;;6.40;99.90;;;;;;5117877;27;20548;-76
2020/12/28 12:03:28;;;;;;;21.37;19.37;;;6.30;99.90;;;;;;5117341;28;20502;-79
2020/12/28 12:05:55;;;;;;;20.43;19.17;;;6.30;99.90;;;;;;5116520;28;20999;-75
2020/12/28 12:08:22;;;;;;;20.60;19.20;;;6.30;99.90;;;;;;5112890;28;20458;-75
2020/12/28 12:10:49;;;;;;;19.90;18.70;;;6.20;99.90;;;;;;5118229;28;20492;-75
2020/12/28 12:13:16;;;;;;;20.47;19.20;;;6.00;99.90;;;;;;5118838;28;20449;-76
2020/12/28 12:15:45;;;;;;;20.57;19.03;;;6.00;99.90;;;;;;5117436;27;20505;-77
2020/12/28 12:18:12;;;;;;;20.30;18.90;;;6.00;99.90;;;;;;5118755;28;20484;-76
2020/12/28 12:20:39;;;;;;;20.90;19.47;;;6.00;99.90;;;;;;5114043;28;20461;-77
2020/12/28 12:23:06;;;;;;;19.80;18.60;;;5.90;99.90;;;;;;5113040;28;20465;-80
2020/12/28 12:25:33;;;;;;;19.53;18.33;;;5.90;99.90;;;;;;5112785;28;21481;-78
2020/12/28 12:28:01;;;;;;;19.10;17.80;;;5.70;99.90;;;;;;5117000;28;20847;-80
2020/12/28 12:30:29;;;;;;;19.63;18.10;;;5.70;99.90;;;;;;5123326;27;20459;-78
2020/12/28 12:32:59;;;;;;;18.97;17.77;;;5.70;99.90;;;;;;5121803;27;20460;-79
2020/12/28 12:35:26;;;;;;;20.27;18.57;;;5.70;99.90;;;;;;5122216;27;20461;-77
2020/12/28 12:37:53;;;;;;;20.93;19.30;;;5.90;99.90;;;;;;5122549;27;21332;-80